sensor_id;sensor_type;location;lat;lon;timestamp;pressure;altitude;pressure_sealevel;temperature;humidity
49515;BME280;35415;47.870;16.058;2023-07-22T00:01:12;96876.78;;;20.82;68.71
49515;BME280;35415;47.870;16.058;2023-07-22T00:03:46;96859.28;;;20.58;68.27
49515;BME280;35415;47.870;16.058;2023-07-22T00:06:15;96911.66;;;20.97;69.26
49515;BME280;35415;47.870;16.058;2023-07-22T00:08:42;96938.53;;;20.95;68.60
49515;BME280;35415;47.870;16.058;2023-07-22T00:11:10;96912.00;;;20.95;69.41
49515;BME280;35415;47.870;16.058;2023-07-22T00:13:40;96839.50;;;20.49;68.88
49515;BME280;35415;47.870;16.058;2023-07-22T00:16:16;96903.22;;;20.90;69.43
49515;BME280;35415;47.870;16.058;2023-07-22T00:19:06;96912.56;;;20.89;68.99
49515;BME280;35415;47.870;16.058;2023-07-22T00:21:34;96896.06;;;20.73;69.01
49515;BME280;35415;47.870;16.058;2023-07-22T00:24:01;96918.72;;;20.86;69.34
49515;BME280;35415;47.870;16.058;2023-07-22T00:29:49;96849.84;;;20.43;69.61
49515;BME280;35415;47.870;16.058;2023-07-22T00:32:16;96868.16;;;20.43;68.98
49515;BME280;35415;47.870;16.058;2023-07-22T00:34:45;96933.53;;;20.85;68.75
49515;BME280;35415;47.870;16.058;2023-07-22T00:37:12;96895.63;;;20.71;68.82
49515;BME280;35415;47.870;16.058;2023-07-22T00:39:40;96917.81;;;20.82;69.14
49515;BME280;35415;47.870;16.058;2023-07-22T00:42:07;96907.22;;;20.68;69.02
49515;BME280;35415;47.870;16.058;2023-07-22T00:44:41;96883.75;;;20.42;69.20
49515;BME280;35415;47.870;16.058;2023-07-22T00:47:14;96874.66;;;20.51;69.15
49515;BME280;35415;47.870;16.058;2023-07-22T00:49:41;96941.50;;;20.78;68.69
49515;BME280;35415;47.870;16.058;2023-07-22T00:52:12;96942.63;;;20.64;68.78
49515;BME280;35415;47.870;16.058;2023-07-22T00:54:39;96949.34;;;20.79;68.69
49515;BME280;35415;47.870;16.058;2023-07-22T00:57:14;96903.44;;;20.48;69.12
49515;BME280;35415;47.870;16.058;2023-07-22T01:05:23;96954.72;;;20.76;69.29
49515;BME280;35415;47.870;16.058;2023-07-22T01:07:52;96933.72;;;20.43;68.91
49515;BME280;35415;47.870;16.058;2023-07-22T01:13:09;96983.63;;;20.77;68.72
49515;BME280;35415;47.870;16.058;2023-07-22T01:24:05;97015.41;;;20.69;69.37
49515;BME280;35415;47.870;16.058;2023-07-22T01:26:33;96996.94;;;20.54;69.07
49515;BME280;35415;47.870;16.058;2023-07-22T01:29:23;97032.72;;;20.73;69.27
49515;BME280;35415;47.870;16.058;2023-07-22T01:31:53;97046.28;;;20.69;70.01
49515;BME280;35415;47.870;16.058;2023-07-22T01:34:22;97032.81;;;20.64;69.09
49515;BME280;35415;47.870;16.058;2023-07-22T01:36:50;97036.03;;;20.66;69.25
49515;BME280;35415;47.870;16.058;2023-07-22T01:45:18;97011.00;;;20.43;68.86
49515;BME280;35415;47.870;16.058;2023-07-22T01:47:45;96973.13;;;20.21;68.39
49515;BME280;35415;47.870;16.058;2023-07-22T01:50:13;97060.13;;;20.64;68.48
49515;BME280;35415;47.870;16.058;2023-07-22T01:52:44;97016.03;;;20.41;68.09
49515;BME280;35415;47.870;16.058;2023-07-22T01:55:16;97064.69;;;20.60;68.62
49515;BME280;35415;47.870;16.058;2023-07-22T01:57:44;97064.00;;;20.63;68.28
49515;BME280;35415;47.870;16.058;2023-07-22T02:00:13;97073.34;;;20.62;68.29
49515;BME280;35415;47.870;16.058;2023-07-22T02:02:42;97081.41;;;20.59;68.40
49515;BME280;35415;47.870;16.058;2023-07-22T02:05:10;97077.44;;;20.56;68.76
49515;BME280;35415;47.870;16.058;2023-07-22T02:07:39;97029.22;;;20.19;68.72
49515;BME280;35415;47.870;16.058;2023-07-22T02:10:08;97014.50;;;20.11;68.73
49515;BME280;35415;47.870;16.058;2023-07-22T02:12:37;97083.91;;;20.52;68.66
49515;BME280;35415;47.870;16.058;2023-07-22T02:15:06;97028.72;;;20.04;68.86
49515;BME280;35415;47.870;16.058;2023-07-22T02:17:38;97087.50;;;20.43;68.82
49515;BME280;35415;47.870;16.058;2023-07-22T02:20:08;97097.09;;;20.50;68.98
49515;BME280;35415;47.870;16.058;2023-07-22T02:34:35;97069.00;;;20.07;69.78
49515;BME280;35415;47.870;16.058;2023-07-22T02:37:05;97112.28;;;20.38;69.58
49515;BME280;35415;47.870;16.058;2023-07-22T02:39:33;97127.41;;;20.36;69.56
49515;BME280;35415;47.870;16.058;2023-07-22T02:42:03;97116.66;;;20.31;70.23
49515;BME280;35415;47.870;16.058;2023-07-22T02:47:19;97143.19;;;20.30;70.70
49515;BME280;35415;47.870;16.058;2023-07-22T02:49:47;97084.56;;;19.86;70.18
49515;BME280;35415;47.870;16.058;2023-07-22T02:52:16;97149.66;;;20.26;70.55
49515;BME280;35415;47.870;16.058;2023-07-22T02:55:05;97100.63;;;19.88;70.61
49515;BME280;35415;47.870;16.058;2023-07-22T03:00:36;97157.91;;;20.17;71.49
49515;BME280;35415;47.870;16.058;2023-07-22T03:03:04;97136.19;;;20.00;71.13
49515;BME280;35415;47.870;16.058;2023-07-22T03:05:37;97120.06;;;19.86;71.17
49515;BME280;35415;47.870;16.058;2023-07-22T03:08:08;97112.56;;;19.74;73.14
49515;BME280;35415;47.870;16.058;2023-07-22T03:22:17;97162.13;;;19.85;72.99
49515;BME280;35415;47.870;16.058;2023-07-22T03:24:46;97165.38;;;19.78;73.52
49515;BME280;35415;47.870;16.058;2023-07-22T03:27:14;97134.84;;;19.56;73.88
49515;BME280;35415;47.870;16.058;2023-07-22T03:29:43;97161.44;;;19.67;73.48
49515;BME280;35415;47.870;16.058;2023-07-22T03:32:11;97138.53;;;19.51;75.12
49515;BME280;35415;47.870;16.058;2023-07-22T03:46:49;97178.19;;;19.48;71.98
49515;BME280;35415;47.870;16.058;2023-07-22T03:52:23;97153.06;;;19.26;70.11
49515;BME280;35415;47.870;16.058;2023-07-22T03:54:53;97145.06;;;19.20;70.75
49515;BME280;35415;47.870;16.058;2023-07-22T03:57:25;97173.41;;;19.37;69.76
49515;BME280;35415;47.870;16.058;2023-07-22T03:59:53;97177.25;;;19.36;69.45
49515;BME280;35415;47.870;16.058;2023-07-22T04:02:22;97160.09;;;19.27;69.21
49515;BME280;35415;47.870;16.058;2023-07-22T04:04:50;97165.69;;;19.30;68.83
49515;BME280;35415;47.870;16.058;2023-07-22T04:10:20;97131.63;;;19.15;68.63
49515;BME280;35415;47.870;16.058;2023-07-22T04:12:48;97090.97;;;18.84;69.94
49515;BME280;35415;47.870;16.058;2023-07-22T04:15:15;97128.72;;;19.12;69.87
49515;BME280;35415;47.870;16.058;2023-07-22T04:26:58;97100.09;;;18.80;69.49
49515;BME280;35415;47.870;16.058;2023-07-22T04:32:28;97160.94;;;19.18;69.62
49515;BME280;35415;47.870;16.058;2023-07-22T04:53:13;97183.56;;;19.19;71.00
49515;BME280;35415;47.870;16.058;2023-07-22T04:55:41;97193.19;;;19.16;70.56
49515;BME280;35415;47.870;16.058;2023-07-22T04:58:08;97193.81;;;19.13;70.65
49515;BME280;35415;47.870;16.058;2023-07-22T05:00:36;97148.53;;;18.83;70.85
49515;BME280;35415;47.870;16.058;2023-07-22T05:03:08;97190.28;;;19.13;71.25
49515;BME280;35415;47.870;16.058;2023-07-22T05:05:36;97183.41;;;19.07;71.33
49515;BME280;35415;47.870;16.058;2023-07-22T05:08:06;97176.38;;;19.06;71.24
49515;BME280;35415;47.870;16.058;2023-07-22T05:10:36;97193.19;;;19.16;70.59
49515;BME280;35415;47.870;16.058;2023-07-22T05:13:09;97194.78;;;19.17;70.38
49515;BME280;35415;47.870;16.058;2023-07-22T05:15:36;97179.38;;;19.13;70.25
49515;BME280;35415;47.870;16.058;2023-07-22T05:18:06;97191.88;;;19.22;70.14
49515;BME280;35415;47.870;16.058;2023-07-22T05:20:34;97153.94;;;19.00;70.96
49515;BME280;35415;47.870;16.058;2023-07-22T05:23:02;97196.69;;;19.26;70.74
49515;BME280;35415;47.870;16.058;2023-07-22T05:25:29;97188.97;;;19.28;70.08
49515;BME280;35415;47.870;16.058;2023-07-22T05:27:58;97121.75;;;18.85;70.12
49515;BME280;35415;47.870;16.058;2023-07-22T05:30:26;97156.63;;;19.17;70.52
49515;BME280;35415;47.870;16.058;2023-07-22T05:32:57;97195.53;;;19.35;70.42
49515;BME280;35415;47.870;16.058;2023-07-22T05:35:25;97179.78;;;19.41;69.28
49515;BME280;35415;47.870;16.058;2023-07-22T05:37:53;97189.56;;;19.42;69.51
49515;BME280;35415;47.870;16.058;2023-07-22T05:40:20;97195.16;;;19.45;69.24
49515;BME280;35415;47.870;16.058;2023-07-22T05:42:50;97212.50;;;19.49;69.48
49515;BME280;35415;47.870;16.058;2023-07-22T05:45:20;97211.84;;;19.52;68.50
49515;BME280;35415;47.870;16.058;2023-07-22T05:47:47;97170.84;;;19.32;68.29
49515;BME280;35415;47.870;16.058;2023-07-22T05:50:15;97198.84;;;19.58;68.72
49515;BME280;35415;47.870;16.058;2023-07-22T05:52:43;97197.25;;;19.57;67.79
49515;BME280;35415;47.870;16.058;2023-07-22T05:55:10;97202.53;;;19.62;67.62
49515;BME280;35415;47.870;16.058;2023-07-22T05:57:38;97210.88;;;19.66;66.96
49515;BME280;35415;47.870;16.058;2023-07-22T06:00:09;97174.94;;;19.46;66.96
49515;BME280;35415;47.870;16.058;2023-07-22T06:02:40;97218.06;;;19.70;66.99
49515;BME280;35415;47.870;16.058;2023-07-22T06:05:08;97198.31;;;19.73;66.49
49515;BME280;35415;47.870;16.058;2023-07-22T06:07:35;97207.44;;;19.77;65.72
49515;BME280;35415;47.870;16.058;2023-07-22T06:10:07;97144.53;;;19.36;65.65
49515;BME280;35415;47.870;16.058;2023-07-22T06:12:37;97222.50;;;19.83;66.06
49515;BME280;35415;47.870;16.058;2023-07-22T06:15:06;97216.72;;;19.85;65.12
49515;BME280;35415;47.870;16.058;2023-07-22T06:17:34;97223.13;;;19.89;64.51
49515;BME280;35415;47.870;16.058;2023-07-22T06:20:08;97183.25;;;19.67;65.42
49515;BME280;35415;47.870;16.058;2023-07-22T06:22:48;97227.59;;;19.94;65.06
49515;BME280;35415;47.870;16.058;2023-07-22T06:25:15;97222.25;;;19.97;65.00
49515;BME280;35415;47.870;16.058;2023-07-22T06:27:44;97151.53;;;19.54;63.68
49515;BME280;35415;47.870;16.058;2023-07-22T06:30:11;97154.53;;;19.61;63.92
49515;BME280;35415;47.870;16.058;2023-07-22T06:32:39;97160.47;;;19.63;63.41
49515;BME280;35415;47.870;16.058;2023-07-22T06:35:13;97232.50;;;20.09;62.72
49515;BME280;35415;47.870;16.058;2023-07-22T06:37:41;97184.31;;;19.83;60.16
49515;BME280;35415;47.870;16.058;2023-07-22T06:40:09;97221.88;;;20.16;59.52
49515;BME280;35415;47.870;16.058;2023-07-22T06:42:39;97173.41;;;19.75;59.86
49515;BME280;35415;47.870;16.058;2023-07-22T06:45:07;97224.44;;;20.12;60.68
49515;BME280;35415;47.870;16.058;2023-07-22T06:47:42;97239.66;;;20.22;60.96
49515;BME280;35415;47.870;16.058;2023-07-22T06:50:11;97189.56;;;19.89;60.05
49515;BME280;35415;47.870;16.058;2023-07-22T06:52:41;97195.81;;;19.89;60.09
49515;BME280;35415;47.870;16.058;2023-07-22T06:55:09;97241.84;;;20.29;58.42
49515;BME280;35415;47.870;16.058;2023-07-22T06:57:37;97230.06;;;20.16;57.46
49515;BME280;35415;47.870;16.058;2023-07-22T07:00:05;97252.72;;;20.37;57.42
49515;BME280;35415;47.870;16.058;2023-07-22T07:02:35;97227.38;;;20.28;57.89
49515;BME280;35415;47.870;16.058;2023-07-22T07:05:03;97258.31;;;20.50;57.10
49515;BME280;35415;47.870;16.058;2023-07-22T07:07:32;97228.94;;;20.38;56.78
49515;BME280;35415;47.870;16.058;2023-07-22T07:10:23;97255.97;;;20.60;57.85
49515;BME280;35415;47.870;16.058;2023-07-22T07:12:53;97248.56;;;20.61;56.11
49515;BME280;35415;47.870;16.058;2023-07-22T07:15:20;97222.97;;;20.45;54.59
49515;BME280;35415;47.870;16.058;2023-07-22T07:17:48;97242.66;;;20.59;55.08
49515;BME280;35415;47.870;16.058;2023-07-22T07:20:15;97257.66;;;20.73;54.85
49515;BME280;35415;47.870;16.058;2023-07-22T07:22:44;97234.78;;;20.57;54.61
49515;BME280;35415;47.870;16.058;2023-07-22T07:25:13;97242.09;;;20.65;54.36
49515;BME280;35415;47.870;16.058;2023-07-22T07:27:41;97270.31;;;20.78;55.90
49515;BME280;35415;47.870;16.058;2023-07-22T07:30:13;97273.66;;;20.84;55.44
49515;BME280;35415;47.870;16.058;2023-07-22T07:32:48;97282.78;;;20.88;55.19
49515;BME280;35415;47.870;16.058;2023-07-22T07:36:08;97272.53;;;20.85;53.66
49515;BME280;35415;47.870;16.058;2023-07-22T07:41:49;97286.19;;;21.06;51.22
49515;BME280;35415;47.870;16.058;2023-07-22T07:44:16;97254.03;;;20.82;51.73
49515;BME280;35415;47.870;16.058;2023-07-22T07:46:44;97262.44;;;20.97;48.75
49515;BME280;35415;47.870;16.058;2023-07-22T07:49:11;97295.38;;;21.22;49.19
49515;BME280;35415;47.870;16.058;2023-07-22T07:51:40;97323.81;;;21.29;48.51
49515;BME280;35415;47.870;16.058;2023-07-22T07:54:08;97268.75;;;21.10;46.15
49515;BME280;35415;47.870;16.058;2023-07-22T07:56:35;97304.25;;;21.40;45.15
49515;BME280;35415;47.870;16.058;2023-07-22T08:24:34;97314.84;;;21.74;44.83
49515;BME280;35415;47.870;16.058;2023-07-22T08:27:04;97305.03;;;21.73;44.51
49515;BME280;35415;47.870;16.058;2023-07-22T08:29:37;97340.56;;;21.94;46.27
49515;BME280;35415;47.870;16.058;2023-07-22T08:43:27;97283.34;;;21.68;46.71
49515;BME280;35415;47.870;16.058;2023-07-22T08:45:59;97332.44;;;21.98;46.32
49515;BME280;35415;47.870;16.058;2023-07-22T08:48:29;97309.16;;;21.91;46.86
49515;BME280;35415;47.870;16.058;2023-07-22T08:51:04;97282.69;;;21.71;46.81
49515;BME280;35415;47.870;16.058;2023-07-22T08:53:31;97314.06;;;21.98;45.25
49515;BME280;35415;47.870;16.058;2023-07-22T08:56:04;97270.91;;;21.83;48.06
49515;BME280;35415;47.870;16.058;2023-07-22T08:58:34;97306.94;;;22.06;47.26
49515;BME280;35415;47.870;16.058;2023-07-22T09:01:01;97328.75;;;22.39;47.23
49515;BME280;35415;47.870;16.058;2023-07-22T09:03:32;97337.00;;;22.51;48.72
49515;BME280;35415;47.870;16.058;2023-07-22T09:06:06;97337.66;;;22.60;48.83
49515;BME280;35415;47.870;16.058;2023-07-22T09:08:35;97292.91;;;22.44;46.99
49515;BME280;35415;47.870;16.058;2023-07-22T09:11:04;97336.50;;;22.73;44.90
49515;BME280;35415;47.870;16.058;2023-07-22T09:13:34;97334.59;;;22.86;43.67
49515;BME280;35415;47.870;16.058;2023-07-22T09:16:28;97316.53;;;22.85;46.76
49515;BME280;35415;47.870;16.058;2023-07-22T09:18:58;97265.69;;;22.63;44.93
49515;BME280;35415;47.870;16.058;2023-07-22T09:24:38;97309.38;;;23.08;44.23
49515;BME280;35415;47.870;16.058;2023-07-22T09:27:12;97329.41;;;23.37;43.51
49515;BME280;35415;47.870;16.058;2023-07-22T09:29:42;97313.53;;;23.30;43.55
49515;BME280;35415;47.870;16.058;2023-07-22T09:32:10;97331.38;;;23.64;42.65
49515;BME280;35415;47.870;16.058;2023-07-22T09:34:41;97345.75;;;23.74;42.80
49515;BME280;35415;47.870;16.058;2023-07-22T09:37:20;97350.47;;;23.89;41.33
49515;BME280;35415;47.870;16.058;2023-07-22T09:39:48;97345.59;;;23.98;41.91
49515;BME280;35415;47.870;16.058;2023-07-22T09:42:24;97350.59;;;24.08;43.09
49515;BME280;35415;47.870;16.058;2023-07-22T09:44:54;97308.91;;;23.90;42.54
49515;BME280;35415;47.870;16.058;2023-07-22T09:47:22;97350.59;;;24.24;41.93
49515;BME280;35415;47.870;16.058;2023-07-22T09:49:49;97337.72;;;24.28;42.29
49515;BME280;35415;47.870;16.058;2023-07-22T09:55:33;97299.72;;;24.30;40.86
49515;BME280;35415;47.870;16.058;2023-07-22T09:58:02;97313.44;;;24.46;42.49
49515;BME280;35415;47.870;16.058;2023-07-22T10:03:59;97295.69;;;24.59;40.04
49515;BME280;35415;47.870;16.058;2023-07-22T10:06:28;97313.53;;;24.84;38.00
49515;BME280;35415;47.870;16.058;2023-07-22T10:08:59;97324.16;;;25.02;40.27
49515;BME280;35415;47.870;16.058;2023-07-22T10:11:30;97304.38;;;24.96;37.87
49515;BME280;35415;47.870;16.058;2023-07-22T10:13:58;97318.19;;;25.15;37.48
49515;BME280;35415;47.870;16.058;2023-07-22T10:16:34;97321.81;;;25.19;37.41
49515;BME280;35415;47.870;16.058;2023-07-22T10:19:15;97295.88;;;25.21;37.90
49515;BME280;35415;47.870;16.058;2023-07-22T10:21:57;97318.19;;;25.35;37.57
49515;BME280;35415;47.870;16.058;2023-07-22T10:24:27;97268.69;;;25.19;37.00
49515;BME280;35415;47.870;16.058;2023-07-22T10:26:56;97284.72;;;25.33;35.86
49515;BME280;35415;47.870;16.058;2023-07-22T10:29:25;97273.06;;;25.39;36.49
49515;BME280;35415;47.870;16.058;2023-07-22T10:32:13;97291.94;;;25.60;37.15
49515;BME280;35415;47.870;16.058;2023-07-22T10:34:43;97233.88;;;25.27;35.71
49515;BME280;35415;47.870;16.058;2023-07-22T10:37:11;97287.59;;;25.59;36.29
49515;BME280;35415;47.870;16.058;2023-07-22T11:00:19;97268.56;;;26.68;33.72
49515;BME280;35415;47.870;16.058;2023-07-22T11:03:13;97223.00;;;26.52;33.80
49515;BME280;35415;47.870;16.058;2023-07-22T11:16:10;97252.78;;;27.25;33.22
49515;BME280;35415;47.870;16.058;2023-07-22T11:18:37;97256.41;;;27.33;31.61
49515;BME280;35415;47.870;16.058;2023-07-22T11:29:48;97266.41;;;27.45;32.29
49515;BME280;35415;47.870;16.058;2023-07-22T11:32:32;97264.44;;;27.45;33.27
49515;BME280;35415;47.870;16.058;2023-07-22T11:35:10;97203.88;;;26.96;32.46
49515;BME280;35415;47.870;16.058;2023-07-22T11:38:03;97259.19;;;27.37;31.98
49515;BME280;35415;47.870;16.058;2023-07-22T11:40:33;97226.13;;;27.07;31.58
49515;BME280;35415;47.870;16.058;2023-07-22T11:43:05;97236.78;;;27.08;31.82
49515;BME280;35415;47.870;16.058;2023-07-22T11:45:38;97209.59;;;26.80;32.73
49515;BME280;35415;47.870;16.058;2023-07-22T11:48:11;97206.19;;;26.90;33.11
49515;BME280;35415;47.870;16.058;2023-07-22T11:50:58;97253.47;;;27.19;33.32
49515;BME280;35415;47.870;16.058;2023-07-22T11:53:26;97244.34;;;27.15;32.52
49515;BME280;35415;47.870;16.058;2023-07-22T11:55:59;97228.41;;;27.01;32.96
49515;BME280;35415;47.870;16.058;2023-07-22T11:58:30;97194.16;;;26.76;31.59
49515;BME280;35415;47.870;16.058;2023-07-22T12:01:07;97238.03;;;27.14;33.70
49515;BME280;35415;47.870;16.058;2023-07-22T12:04:09;97223.63;;;26.98;33.61
49515;BME280;35415;47.870;16.058;2023-07-22T12:06:38;97243.50;;;27.07;33.81
49515;BME280;35415;47.870;16.058;2023-07-22T12:09:08;97223.56;;;26.94;32.82
49515;BME280;35415;47.870;16.058;2023-07-22T12:11:36;97235.53;;;27.02;33.21
49515;BME280;35415;47.870;16.058;2023-07-22T12:14:16;97250.91;;;27.03;33.55
49515;BME280;35415;47.870;16.058;2023-07-22T12:16:56;97241.28;;;26.90;33.07
49515;BME280;35415;47.870;16.058;2023-07-22T12:32:00;97229.34;;;26.82;33.54
49515;BME280;35415;47.870;16.058;2023-07-22T12:34:27;97203.09;;;26.65;34.44
49515;BME280;35415;47.870;16.058;2023-07-22T12:36:54;97223.78;;;26.79;34.05
49515;BME280;35415;47.870;16.058;2023-07-22T12:39:22;97175.22;;;26.44;34.16
49515;BME280;35415;47.870;16.058;2023-07-22T12:41:49;97185.13;;;26.49;34.29
49515;BME280;35415;47.870;16.058;2023-07-22T12:44:19;97191.97;;;26.58;34.02
49515;BME280;35415;47.870;16.058;2023-07-22T12:46:46;97186.88;;;26.60;35.83
49515;BME280;35415;47.870;16.058;2023-07-22T12:49:57;97233.03;;;26.93;35.01
49515;BME280;35415;47.870;16.058;2023-07-22T12:52:25;97227.84;;;26.88;34.00
49515;BME280;35415;47.870;16.058;2023-07-22T12:54:53;97209.94;;;26.75;33.54
49515;BME280;35415;47.870;16.058;2023-07-22T12:57:20;97211.09;;;26.74;33.05
49515;BME280;35415;47.870;16.058;2023-07-22T12:59:47;97191.25;;;26.65;33.46
49515;BME280;35415;47.870;16.058;2023-07-22T13:02:15;97224.66;;;26.86;33.45
49515;BME280;35415;47.870;16.058;2023-07-22T13:04:44;97171.75;;;26.51;33.20
49515;BME280;35415;47.870;16.058;2023-07-22T13:07:14;97194.13;;;26.72;35.37
49515;BME280;35415;47.870;16.058;2023-07-22T13:09:42;97169.81;;;26.51;35.75
49515;BME280;35415;47.870;16.058;2023-07-22T13:12:36;97196.09;;;26.72;34.27
49515;BME280;35415;47.870;16.058;2023-07-22T13:15:06;97213.19;;;26.84;34.42
49515;BME280;35415;47.870;16.058;2023-07-22T13:17:34;97207.75;;;26.88;34.30
49515;BME280;35415;47.870;16.058;2023-07-22T13:20:05;97212.81;;;26.86;33.78
49515;BME280;35415;47.870;16.058;2023-07-22T13:31:03;97181.34;;;26.60;36.03
49515;BME280;35415;47.870;16.058;2023-07-22T13:33:33;97159.13;;;26.50;36.36
49515;BME280;35415;47.870;16.058;2023-07-22T13:36:00;97177.84;;;26.63;37.71
49515;BME280;35415;47.870;16.058;2023-07-22T13:38:28;97210.38;;;26.81;36.67
49515;BME280;35415;47.870;16.058;2023-07-22T13:40:56;97212.72;;;26.79;35.82
49515;BME280;35415;47.870;16.058;2023-07-22T13:43:32;97179.63;;;26.49;37.36
49515;BME280;35415;47.870;16.058;2023-07-22T13:46:00;97185.66;;;26.58;35.95
49515;BME280;35415;47.870;16.058;2023-07-22T13:48:29;97187.56;;;26.54;36.32
49515;BME280;35415;47.870;16.058;2023-07-22T13:50:56;97178.81;;;26.48;34.85
49515;BME280;35415;47.870;16.058;2023-07-22T13:53:24;97165.72;;;26.38;34.79
49515;BME280;35415;47.870;16.058;2023-07-22T13:55:52;97168.00;;;26.36;34.60
49515;BME280;35415;47.870;16.058;2023-07-22T13:58:19;97151.28;;;26.22;36.84
49515;BME280;35415;47.870;16.058;2023-07-22T14:00:47;97140.97;;;26.19;38.39
49515;BME280;35415;47.870;16.058;2023-07-22T14:03:14;97191.56;;;26.56;38.33
49515;BME280;35415;47.870;16.058;2023-07-22T14:05:46;97191.16;;;26.54;36.88
49515;BME280;35415;47.870;16.058;2023-07-22T14:08:14;97193.44;;;26.52;36.92
49515;BME280;35415;47.870;16.058;2023-07-22T14:10:41;97196.22;;;26.52;37.70
49515;BME280;35415;47.870;16.058;2023-07-22T14:13:08;97188.31;;;26.51;36.27
49515;BME280;35415;47.870;16.058;2023-07-22T14:15:40;97185.50;;;26.47;36.31
49515;BME280;35415;47.870;16.058;2023-07-22T14:18:08;97166.72;;;26.30;36.97
49515;BME280;35415;47.870;16.058;2023-07-22T14:23:40;97196.28;;;26.56;37.27
49515;BME280;35415;47.870;16.058;2023-07-22T14:26:11;97197.56;;;26.35;38.02
49515;BME280;35415;47.870;16.058;2023-07-22T14:28:40;97173.25;;;26.18;38.45
49515;BME280;35415;47.870;16.058;2023-07-22T14:31:07;97163.16;;;26.03;38.63
49515;BME280;35415;47.870;16.058;2023-07-22T14:33:35;97176.91;;;25.99;37.37
49515;BME280;35415;47.870;16.058;2023-07-22T14:36:03;97169.00;;;25.98;37.97
49515;BME280;35415;47.870;16.058;2023-07-22T14:38:31;97197.59;;;26.13;38.01
49515;BME280;35415;47.870;16.058;2023-07-22T14:41:09;97163.44;;;25.94;37.57
49515;BME280;35415;47.870;16.058;2023-07-22T14:43:36;97178.06;;;25.98;38.00
49515;BME280;35415;47.870;16.058;2023-07-22T14:46:04;97188.31;;;25.98;38.58
49515;BME280;35415;47.870;16.058;2023-07-22T14:48:31;97184.94;;;25.85;39.31
49515;BME280;35415;47.870;16.058;2023-07-22T14:51:00;97176.63;;;25.82;40.39
49515;BME280;35415;47.870;16.058;2023-07-22T14:53:27;97124.16;;;25.52;40.06
49515;BME280;35415;47.870;16.058;2023-07-22T14:55:55;97188.94;;;25.88;40.67
49515;BME280;35415;47.870;16.058;2023-07-22T14:58:24;97205.16;;;25.93;41.65
49515;BME280;35415;47.870;16.058;2023-07-22T15:00:51;97170.28;;;25.77;39.42
49515;BME280;35415;47.870;16.058;2023-07-22T15:03:23;97193.75;;;25.94;39.98
49515;BME280;35415;47.870;16.058;2023-07-22T15:05:52;97194.97;;;25.97;40.39
49515;BME280;35415;47.870;16.058;2023-07-22T15:08:20;97153.53;;;25.67;38.71
49515;BME280;35415;47.870;16.058;2023-07-22T15:10:47;97174.91;;;25.96;40.70
49515;BME280;35415;47.870;16.058;2023-07-22T15:13:45;97185.34;;;26.10;40.55
49515;BME280;35415;47.870;16.058;2023-07-22T15:16:15;97186.94;;;26.11;41.96
49515;BME280;35415;47.870;16.058;2023-07-22T15:18:43;97177.13;;;26.14;41.26
49515;BME280;35415;47.870;16.058;2023-07-22T16:16:23;97137.91;;;26.87;37.17
49515;BME280;35415;47.870;16.058;2023-07-22T16:18:50;97096.25;;;26.62;36.42
49515;BME280;35415;47.870;16.058;2023-07-22T16:21:19;97137.63;;;26.96;37.11
49515;BME280;35415;47.870;16.058;2023-07-22T16:23:46;97117.06;;;26.90;37.29
49515;BME280;35415;47.870;16.058;2023-07-22T16:26:19;97140.44;;;26.99;37.47
49515;BME280;35415;47.870;16.058;2023-07-22T16:28:49;97144.81;;;27.01;37.45
49515;BME280;35415;47.870;16.058;2023-07-22T16:31:17;97093.34;;;26.85;37.34
49515;BME280;35415;47.870;16.058;2023-07-22T16:40:31;97086.25;;;26.84;37.15
49515;BME280;35415;47.870;16.058;2023-07-22T16:43:00;97102.16;;;26.98;37.34
49515;BME280;35415;47.870;16.058;2023-07-22T16:45:28;97118.00;;;27.01;37.50
49515;BME280;35415;47.870;16.058;2023-07-22T16:48:04;97114.44;;;27.01;37.64
49515;BME280;35415;47.870;16.058;2023-07-22T16:50:31;97077.72;;;26.59;38.31
49515;BME280;35415;47.870;16.058;2023-07-22T16:52:59;97111.72;;;26.71;38.48
49515;BME280;35415;47.870;16.058;2023-07-22T16:55:36;97110.09;;;26.66;38.56
49515;BME280;35415;47.870;16.058;2023-07-22T16:58:03;97113.59;;;26.63;38.63
49515;BME280;35415;47.870;16.058;2023-07-22T17:00:31;97095.97;;;26.37;38.42
49515;BME280;35415;47.870;16.058;2023-07-22T17:02:58;97116.94;;;26.46;39.12
49515;BME280;35415;47.870;16.058;2023-07-22T17:05:26;97111.28;;;26.35;38.99
49515;BME280;35415;47.870;16.058;2023-07-22T17:07:53;97121.03;;;26.29;39.17
49515;BME280;35415;47.870;16.058;2023-07-22T17:10:23;97133.25;;;26.31;39.78
49515;BME280;35415;47.870;16.058;2023-07-22T17:12:53;97123.13;;;26.09;39.97
49515;BME280;35415;47.870;16.058;2023-07-22T17:15:21;97152.06;;;26.22;40.47
49515;BME280;35415;47.870;16.058;2023-07-22T17:17:48;97154.75;;;26.19;40.42
49515;BME280;35415;47.870;16.058;2023-07-22T17:20:16;97147.88;;;26.05;40.88
49515;BME280;35415;47.870;16.058;2023-07-22T17:22:43;97093.28;;;25.65;41.37
49515;BME280;35415;47.870;16.058;2023-07-22T17:25:11;97152.84;;;25.96;41.12
49515;BME280;35415;47.870;16.058;2023-07-22T17:27:39;97099.06;;;25.57;41.80
49515;BME280;35415;47.870;16.058;2023-07-22T17:30:10;97115.41;;;25.46;41.95
49515;BME280;35415;47.870;16.058;2023-07-22T17:32:38;97155.47;;;25.66;41.61
49515;BME280;35415;47.870;16.058;2023-07-22T17:35:06;97129.44;;;25.37;43.01
49515;BME280;35415;47.870;16.058;2023-07-22T17:37:33;97182.31;;;25.69;42.65
49515;BME280;35415;47.870;16.058;2023-07-22T17:40:01;97157.09;;;25.44;42.15
49515;BME280;35415;47.870;16.058;2023-07-22T17:42:28;97116.81;;;25.13;43.27
49515;BME280;35415;47.870;16.058;2023-07-22T17:44:55;97143.75;;;25.24;43.27
49515;BME280;35415;47.870;16.058;2023-07-22T17:47:25;97186.16;;;25.42;43.42